createdAt,value
2022-11-29T00:01:18.830Z,14.30
2022-11-29T00:03:45.629Z,14.40
2022-11-29T00:06:20.594Z,14.30
2022-11-29T00:08:48.381Z,14.30
2022-11-29T00:11:38.792Z,14.30
2022-11-29T00:14:07.999Z,14.30
2022-11-29T00:16:34.902Z,14.20
2022-11-29T00:19:02.075Z,14.20
2022-11-29T00:21:29.487Z,14.20
2022-11-29T00:23:56.309Z,14.10
2022-11-29T00:26:23.239Z,14.10
2022-11-29T00:28:50.118Z,14.10
2022-11-29T00:31:26.145Z,14.10
2022-11-29T00:33:53.461Z,14.10
2022-11-29T00:36:20.595Z,14.10
2022-11-29T00:38:47.515Z,14.20
2022-11-29T00:41:14.349Z,14.10
2022-11-29T00:43:41.665Z,14.20
2022-11-29T00:46:09.456Z,14.30
2022-11-29T00:48:36.662Z,14.20
2022-11-29T00:51:04.310Z,14.20
2022-11-29T00:53:31.671Z,14.20
2022-11-29T00:55:58.421Z,14.20
2022-11-29T00:58:25.190Z,14.30
2022-11-29T01:00:53.811Z,14.30
2022-11-29T01:03:21.379Z,14.30
2022-11-29T01:05:48.793Z,14.30
2022-11-29T01:08:16.136Z,14.30
2022-11-29T01:10:43.134Z,14.20
2022-11-29T01:13:10.323Z,14.20
2022-11-29T01:15:37.227Z,14.20
2022-11-29T01:18:04.278Z,14.20
2022-11-29T01:20:31.299Z,14.20
2022-11-29T01:22:58.468Z,14.20
2022-11-29T01:25:25.225Z,14.20
2022-11-29T01:27:51.914Z,14.20
2022-11-29T01:30:19.279Z,14.20
2022-11-29T01:32:46.031Z,14.30
2022-11-29T01:35:12.734Z,14.20
2022-11-29T01:37:39.469Z,14.20
2022-11-29T01:40:06.986Z,14.20
2022-11-29T01:42:33.713Z,14.20
2022-11-29T01:45:05.624Z,14.20
2022-11-29T01:47:33.182Z,14.20
2022-11-29T01:50:00.386Z,14.20
2022-11-29T01:52:30.798Z,14.20
2022-11-29T01:55:01.765Z,14.20
2022-11-29T01:57:30.287Z,14.10
2022-11-29T02:00:04.107Z,14.10
2022-11-29T02:02:57.197Z,14.10
2022-11-29T02:05:25.263Z,14.10
2022-11-29T02:07:55.852Z,14.00
2022-11-29T02:10:51.010Z,14.10
2022-11-29T02:13:23.861Z,14.10
2022-11-29T02:16:09.327Z,14.10
2022-11-29T02:18:48.136Z,14.10
2022-11-29T02:21:22.015Z,14.00
2022-11-29T02:24:21.601Z,13.90
2022-11-29T02:26:54.409Z,14.00
2022-11-29T02:29:45.530Z,14.00
2022-11-29T02:32:48.825Z,14.00
2022-11-29T02:35:53.034Z,14.00
2022-11-29T02:38:22.786Z,13.90
2022-11-29T02:41:26.845Z,13.90
2022-11-29T02:44:21.211Z,13.90
2022-11-29T02:47:06.859Z,13.90
2022-11-29T02:49:45.429Z,13.90
2022-11-29T02:52:22.097Z,14.00
2022-11-29T02:55:18.294Z,14.00
2022-11-29T02:58:09.342Z,14.00
2022-11-29T03:00:42.779Z,14.00
2022-11-29T03:03:19.429Z,14.00
2022-11-29T03:06:05.325Z,14.00
2022-11-29T03:08:49.172Z,14.00
2022-11-29T03:11:38.134Z,14.00
2022-11-29T03:14:17.500Z,13.90
2022-11-29T03:17:11.346Z,13.90
2022-11-29T03:19:50.863Z,14.00
2022-11-29T03:22:38.656Z,14.00
2022-11-29T03:25:21.872Z,13.90
2022-11-29T03:27:59.994Z,13.90
2022-11-29T03:30:27.503Z,13.90
2022-11-29T03:33:03.570Z,13.90
2022-11-29T03:35:39.358Z,13.90
2022-11-29T03:38:13.222Z,13.90
2022-11-29T03:40:49.966Z,14.00
2022-11-29T03:43:35.699Z,13.90
2022-11-29T03:46:12.600Z,13.90
2022-11-29T03:49:02.450Z,14.00
2022-11-29T03:51:55.974Z,14.00
2022-11-29T03:54:27.903Z,14.00
2022-11-29T03:56:55.035Z,14.00
2022-11-29T04:00:00.532Z,14.00
2022-11-29T04:02:48.728Z,14.00
2022-11-29T04:05:24.329Z,14.00
2022-11-29T04:08:00.948Z,13.90
2022-11-29T04:10:58.255Z,13.90
2022-11-29T04:13:46.454Z,13.90
2022-11-29T04:16:51.752Z,13.90
2022-11-29T04:19:40.038Z,13.80
2022-11-29T04:22:40.462Z,13.80
2022-11-29T04:25:15.807Z,13.70
2022-11-29T04:28:10.804Z,13.70
2022-11-29T04:31:03.607Z,13.70
2022-11-29T04:34:08.238Z,13.70
2022-11-29T04:36:56.891Z,13.70
2022-11-29T04:39:50.704Z,13.70
2022-11-29T04:42:33.045Z,13.70
2022-11-29T04:45:50.052Z,13.70
2022-11-29T04:48:30.349Z,13.70
2022-11-29T04:50:57.005Z,13.70
2022-11-29T04:53:47.857Z,13.70
2022-11-29T04:56:39.368Z,13.60
2022-11-29T04:59:28.097Z,13.60
2022-11-29T05:01:54.900Z,13.60
2022-11-29T05:04:45.514Z,13.60
2022-11-29T05:07:29.779Z,13.60
2022-11-29T05:10:03.841Z,13.70
2022-11-29T05:12:45.234Z,13.60
2022-11-29T05:15:17.891Z,13.60
2022-11-29T05:18:16.485Z,13.60
2022-11-29T05:20:55.522Z,13.60
2022-11-29T05:24:07.232Z,13.50
2022-11-29T05:27:01.520Z,13.50
2022-11-29T05:29:55.362Z,13.50
2022-11-29T05:32:47.380Z,13.50
2022-11-29T05:35:28.592Z,13.50
2022-11-29T05:38:02.220Z,13.60
2022-11-29T05:41:07.862Z,13.60
2022-11-29T05:43:40.803Z,13.60
2022-11-29T05:46:13.878Z,13.50
2022-11-29T05:48:53.176Z,13.50
2022-11-29T05:51:22.073Z,13.60
2022-11-29T05:54:12.043Z,13.60
2022-11-29T05:56:57.986Z,13.70
2022-11-29T05:59:29.789Z,13.70
2022-11-29T06:02:15.153Z,13.70
2022-11-29T06:04:45.989Z,13.70
2022-11-29T06:07:20.246Z,13.70
2022-11-29T06:10:10.964Z,13.70
2022-11-29T06:12:38.575Z,13.70
2022-11-29T06:15:27.128Z,13.70
2022-11-29T06:18:16.821Z,13.70
2022-11-29T06:20:49.776Z,13.60
2022-11-29T06:23:42.161Z,13.70
2022-11-29T06:26:50.110Z,13.70
2022-11-29T06:29:44.076Z,13.60
2022-11-29T06:32:30.648Z,13.70
2022-11-29T06:35:33.076Z,13.60
2022-11-29T06:38:25.034Z,13.60
2022-11-29T06:40:54.891Z,13.60
2022-11-29T06:43:25.773Z,13.60
2022-11-29T06:46:00.441Z,13.60
2022-11-29T06:48:30.608Z,13.60
2022-11-29T06:51:03.055Z,13.60
2022-11-29T06:53:52.206Z,13.60
2022-11-29T06:56:41.572Z,13.60
2022-11-29T06:59:17.282Z,13.60
2022-11-29T07:01:53.878Z,13.60
2022-11-29T07:05:05.318Z,13.60
2022-11-29T07:07:34.483Z,13.60
2022-11-29T07:10:05.623Z,13.60
2022-11-29T07:12:34.468Z,13.60
2022-11-29T07:15:01.419Z,13.60
2022-11-29T07:17:50.154Z,13.60
2022-11-29T07:20:38.726Z,13.60
2022-11-29T07:23:34.585Z,13.60
2022-11-29T07:26:27.102Z,13.60
2022-11-29T07:28:53.742Z,13.60
2022-11-29T07:31:38.483Z,13.70
2022-11-29T07:34:19.035Z,13.50
2022-11-29T07:36:54.704Z,13.50
2022-11-29T07:39:40.862Z,13.50
2022-11-29T07:42:10.375Z,13.50
2022-11-29T07:44:58.666Z,13.60
2022-11-29T07:47:25.430Z,13.60
2022-11-29T07:49:52.146Z,13.60
2022-11-29T07:52:18.929Z,13.60
2022-11-29T07:54:46.099Z,13.60
2022-11-29T07:57:13.007Z,13.60
2022-11-29T07:59:39.723Z,13.60
2022-11-29T08:02:11.608Z,13.60
2022-11-29T08:04:44.456Z,13.60
2022-11-29T08:07:11.458Z,13.60
2022-11-29T08:09:38.210Z,13.60
2022-11-29T08:12:05.230Z,13.60
2022-11-29T08:14:33.262Z,13.60
2022-11-29T08:17:00.026Z,13.60
2022-11-29T08:19:26.812Z,13.60
2022-11-29T08:21:53.982Z,13.60
2022-11-29T08:24:20.826Z,13.70
2022-11-29T08:26:47.716Z,13.70
2022-11-29T08:29:14.615Z,13.80
2022-11-29T08:31:41.527Z,13.80
2022-11-29T08:34:10.559Z,13.80
2022-11-29T08:36:37.443Z,13.70
2022-11-29T08:39:09.208Z,13.80
2022-11-29T08:41:36.486Z,13.80
2022-11-29T08:44:05.278Z,13.80
2022-11-29T08:46:50.566Z,13.90
2022-11-29T08:49:17.730Z,13.90
2022-11-29T08:51:44.623Z,13.90
2022-11-29T08:54:11.447Z,13.90
2022-11-29T08:59:24.944Z,14.00
2022-11-29T09:01:51.735Z,13.90
2022-11-29T09:04:18.558Z,13.90
2022-11-29T09:06:45.448Z,13.90
2022-11-29T09:09:12.202Z,13.90
2022-11-29T09:11:39.054Z,13.90
2022-11-29T09:14:07.676Z,13.90
2022-11-29T09:16:37.259Z,14.00
2022-11-29T09:19:05.437Z,14.00
2022-11-29T09:21:34.818Z,14.00
2022-11-29T09:24:03.259Z,14.10
2022-11-29T09:26:31.973Z,14.20
2022-11-29T09:29:01.232Z,14.30
2022-11-29T09:31:29.636Z,14.30
2022-11-29T09:33:56.832Z,14.40
2022-11-29T09:36:28.534Z,14.50
2022-11-29T09:38:56.927Z,14.50
2022-11-29T09:41:32.999Z,14.50
2022-11-29T09:44:24.790Z,14.60
2022-11-29T09:47:12.930Z,14.60
2022-11-29T09:49:56.547Z,14.70
2022-11-29T09:52:42.094Z,14.70
2022-11-29T09:55:32.674Z,14.70
2022-11-29T09:58:03.776Z,14.60
2022-11-29T10:00:35.811Z,14.60
2022-11-29T10:03:18.554Z,14.60
2022-11-29T10:05:49.938Z,14.60
2022-11-29T10:08:25.871Z,14.60
2022-11-29T10:11:19.568Z,14.70
2022-11-29T10:13:53.523Z,14.80
2022-11-29T10:16:20.342Z,14.80
2022-11-29T10:19:15.582Z,14.90
2022-11-29T10:21:45.538Z,14.90
2022-11-29T10:24:21.005Z,15.00
2022-11-29T10:26:47.770Z,15.10
2022-11-29T10:29:16.123Z,15.10
2022-11-29T10:31:49.413Z,15.10
2022-11-29T10:34:19.933Z,15.30
2022-11-29T10:36:53.616Z,15.20
2022-11-29T10:39:29.845Z,15.30
2022-11-29T10:42:01.316Z,15.40
2022-11-29T10:44:28.607Z,15.40
2022-11-29T10:46:56.047Z,15.40
2022-11-29T10:49:27.663Z,15.50
2022-11-29T10:51:54.471Z,15.60
2022-11-29T10:54:39.755Z,15.60
2022-11-29T10:57:16.142Z,15.60
2022-11-29T11:00:02.154Z,15.60
2022-11-29T11:02:29.645Z,15.60
2022-11-29T11:04:56.852Z,15.60
2022-11-29T11:07:38.120Z,15.70
2022-11-29T11:10:21.046Z,15.70
2022-11-29T11:13:07.012Z,15.50
2022-11-29T11:15:33.874Z,15.60
2022-11-29T11:18:04.884Z,15.80
2022-11-29T11:20:41.260Z,15.80
2022-11-29T11:23:21.078Z,15.70
2022-11-29T11:25:50.582Z,15.70
2022-11-29T11:28:21.521Z,15.70
2022-11-29T11:30:58.688Z,15.80
2022-11-29T11:33:50.085Z,16.00
2022-11-29T11:36:19.896Z,16.20
2022-11-29T11:39:09.687Z,16.20
2022-11-29T11:41:59.621Z,16.30
2022-11-29T11:44:58.356Z,16.40
2022-11-29T11:47:27.258Z,16.30
2022-11-29T11:50:13.740Z,16.30
2022-11-29T11:52:50.569Z,16.30
2022-11-29T11:55:42.950Z,16.30
2022-11-29T11:58:12.737Z,16.30
2022-11-29T12:01:03.823Z,16.30
2022-11-29T12:03:52.645Z,16.20
2022-11-29T12:06:28.504Z,16.20
2022-11-29T12:09:25.066Z,16.20
2022-11-29T12:12:05.792Z,16.30
2022-11-29T12:14:51.578Z,16.20
2022-11-29T12:17:46.139Z,16.20
2022-11-29T12:20:23.985Z,16.10
2022-11-29T12:22:53.768Z,16.00
2022-11-29T12:25:32.294Z,16.00
2022-11-29T12:27:59.016Z,16.00
2022-11-29T12:30:25.802Z,16.10
2022-11-29T12:32:57.744Z,16.10
2022-11-29T12:36:05.840Z,16.20
2022-11-29T12:38:41.432Z,16.20
2022-11-29T12:41:34.501Z,16.10
2022-11-29T12:44:24.378Z,16.10
2022-11-29T12:47:34.661Z,16.10
2022-11-29T12:50:36.833Z,16.10
2022-11-29T12:53:55.714Z,16.00
2022-11-29T12:56:29.244Z,16.00
2022-11-29T12:59:27.698Z,16.10
2022-11-29T13:02:11.775Z,16.10
2022-11-29T13:05:00.063Z,16.00
2022-11-29T13:07:51.828Z,16.10
2022-11-29T13:10:27.621Z,16.00
2022-11-29T13:12:59.407Z,16.10
2022-11-29T13:15:48.678Z,16.00
2022-11-29T13:18:46.957Z,16.00
2022-11-29T13:21:34.968Z,15.90
2022-11-29T13:24:09.978Z,15.90
2022-11-29T13:26:40.018Z,15.80
2022-11-29T13:29:12.642Z,15.80
2022-11-29T13:31:40.164Z,15.80
2022-11-29T13:34:48.570Z,15.80
2022-11-29T13:37:26.468Z,15.80
2022-11-29T13:40:05.224Z,15.80
2022-11-29T13:42:38.970Z,15.70
2022-11-29T13:45:26.538Z,15.70
2022-11-29T13:47:57.621Z,15.70
2022-11-29T13:50:39.105Z,15.70
2022-11-29T13:53:15.847Z,15.70
2022-11-29T13:56:03.005Z,15.70
2022-11-29T13:58:34.502Z,15.60
2022-11-29T14:01:05.614Z,15.70
2022-11-29T14:03:50.245Z,15.60
2022-11-29T14:06:34.671Z,15.60
2022-11-29T14:09:21.433Z,15.60
2022-11-29T14:11:54.684Z,15.60
2022-11-29T14:14:27.929Z,15.60
2022-11-29T14:17:03.933Z,15.50
2022-11-29T14:19:34.020Z,15.60
2022-11-29T14:22:09.802Z,15.60
2022-11-29T14:24:36.750Z,15.60
2022-11-29T14:27:06.626Z,15.50
2022-11-29T14:29:56.510Z,15.50
2022-11-29T14:32:56.368Z,15.40
2022-11-29T14:35:32.199Z,15.40
2022-11-29T14:38:14.503Z,15.40
2022-11-29T14:40:41.402Z,15.30
2022-11-29T14:43:36.489Z,15.20
2022-11-29T14:46:15.576Z,15.10
2022-11-29T14:49:03.435Z,14.90
2022-11-29T14:51:34.917Z,14.80
2022-11-29T14:54:07.782Z,14.70
2022-11-29T14:56:38.739Z,14.60
2022-11-29T14:59:43.370Z,14.40
2022-11-29T15:02:29.984Z,14.30
2022-11-29T15:04:57.558Z,14.20
2022-11-29T15:07:29.563Z,14.20
2022-11-29T15:10:01.275Z,14.30
2022-11-29T15:12:35.225Z,14.20
2022-11-29T15:15:23.819Z,14.10
2022-11-29T15:18:09.181Z,14.10
2022-11-29T15:21:03.758Z,14.00
2022-11-29T15:23:41.141Z,13.80
2022-11-29T15:26:16.836Z,13.80
2022-11-29T15:28:43.812Z,13.60
2022-11-29T15:31:14.296Z,13.60
2022-11-29T15:33:43.435Z,13.50
2022-11-29T15:36:21.861Z,13.50
2022-11-29T15:38:54.311Z,13.40
2022-11-29T15:41:31.025Z,13.30
2022-11-29T15:44:04.493Z,13.30
2022-11-29T15:46:33.815Z,13.20
2022-11-29T15:49:39.229Z,13.20
2022-11-29T15:52:14.376Z,13.10
2022-11-29T15:54:48.407Z,13.20
2022-11-29T15:57:24.105Z,13.00
2022-11-29T15:59:55.778Z,13.00
2022-11-29T16:02:50.202Z,13.00
2022-11-29T16:05:22.687Z,12.90
2022-11-29T16:07:54.656Z,12.90
2022-11-29T16:10:24.878Z,13.00
2022-11-29T16:12:54.655Z,13.00
2022-11-29T16:15:40.239Z,13.10
2022-11-29T16:18:13.562Z,13.10
2022-11-29T16:20:42.751Z,13.30
2022-11-29T16:23:15.460Z,13.20
2022-11-29T16:25:55.724Z,13.20
2022-11-29T16:28:23.253Z,13.20
2022-11-29T16:30:50.108Z,13.30
2022-11-29T16:33:23.952Z,13.40
2022-11-29T16:35:51.855Z,13.40
2022-11-29T16:38:22.158Z,13.40
2022-11-29T16:41:07.962Z,13.40
2022-11-29T16:43:43.746Z,13.40
2022-11-29T16:46:22.685Z,13.40
2022-11-29T16:48:50.386Z,13.40
2022-11-29T16:51:25.377Z,13.40
2022-11-29T16:53:54.019Z,13.40
2022-11-29T16:56:24.369Z,13.50
2022-11-29T16:59:24.862Z,13.50
2022-11-29T17:01:48.779Z,13.50
2022-11-29T17:04:23.617Z,13.60
2022-11-29T17:06:53.153Z,13.60
2022-11-29T17:09:23.509Z,13.50
2022-11-29T17:11:50.336Z,13.50
2022-11-29T17:14:17.138Z,13.50
2022-11-29T17:16:44.141Z,13.40
2022-11-29T17:19:13.430Z,13.40
2022-11-29T17:21:40.616Z,13.40
2022-11-29T17:24:11.982Z,13.40
2022-11-29T17:26:38.975Z,13.40
2022-11-29T17:29:05.944Z,13.40
2022-11-29T17:31:32.838Z,13.40
2022-11-29T17:34:00.763Z,13.40
2022-11-29T17:36:28.127Z,13.40
2022-11-29T17:38:55.021Z,13.40
2022-11-29T17:41:23.727Z,13.40
2022-11-29T17:43:51.946Z,13.40
2022-11-29T17:46:24.144Z,13.50
2022-11-29T17:48:52.190Z,13.40
2022-11-29T17:51:50.542Z,13.50
2022-11-29T17:54:08.991Z,13.50
2022-11-29T17:56:35.810Z,13.50
2022-11-29T17:59:04.163Z,13.50
2022-11-29T18:01:34.043Z,13.50
2022-11-29T18:04:03.688Z,13.50
2022-11-29T18:06:35.084Z,13.60
2022-11-29T18:09:03.572Z,13.50
2022-11-29T18:11:47.033Z,13.60
2022-11-29T18:14:22.826Z,13.60
2022-11-29T18:16:50.408Z,13.60
2022-11-29T18:19:20.449Z,13.60
2022-11-29T18:21:48.045Z,13.60
2022-11-29T18:24:14.942Z,13.60
2022-11-29T18:26:42.034Z,13.70
2022-11-29T18:29:09.495Z,13.60
2022-11-29T18:31:39.252Z,13.60
2022-11-29T18:34:09.267Z,13.60
2022-11-29T18:36:39.619Z,13.60
2022-11-29T18:39:14.659Z,13.70
2022-11-29T18:41:44.086Z,13.60
2022-11-29T18:44:14.155Z,13.60
2022-11-29T18:46:43.153Z,13.60
2022-11-29T18:49:12.023Z,13.60
2022-11-29T18:51:39.795Z,13.60
2022-11-29T18:54:06.673Z,13.70
2022-11-29T18:56:35.033Z,13.60
2022-11-29T18:59:10.860Z,13.70
2022-11-29T19:01:42.369Z,13.70
2022-11-29T19:04:12.275Z,13.70
2022-11-29T19:06:40.172Z,13.60
2022-11-29T19:09:11.277Z,13.70
2022-11-29T19:11:38.549Z,13.70
2022-11-29T19:14:11.154Z,13.80
2022-11-29T19:16:40.631Z,13.70
2022-11-29T19:19:07.622Z,13.70
2022-11-29T19:21:34.679Z,13.70
2022-11-29T19:24:04.098Z,13.70
2022-11-29T19:26:32.439Z,13.70
2022-11-29T19:29:00.780Z,13.70
2022-11-29T19:31:28.288Z,13.60
2022-11-29T19:33:56.195Z,13.70
2022-11-29T19:36:29.147Z,13.60
2022-11-29T19:38:56.703Z,13.60
2022-11-29T19:41:25.607Z,13.70
2022-11-29T19:43:52.904Z,13.70
2022-11-29T19:46:28.288Z,13.80
2022-11-29T19:48:56.499Z,13.70
2022-11-29T19:51:24.533Z,13.70
2022-11-29T19:53:56.470Z,13.70
2022-11-29T19:56:23.878Z,13.70
2022-11-29T19:58:50.940Z,13.70
2022-11-29T20:01:20.251Z,13.70
2022-11-29T20:03:47.045Z,13.70
2022-11-29T20:06:14.521Z,13.70
2022-11-29T20:08:42.409Z,13.70
2022-11-29T20:11:27.454Z,13.70
2022-11-29T20:13:59.922Z,13.60
2022-11-29T20:16:28.846Z,13.70
2022-11-29T20:18:56.776Z,13.70
2022-11-29T20:21:24.476Z,13.60
2022-11-29T20:23:56.496Z,13.60
2022-11-29T20:26:23.829Z,13.70
2022-11-29T20:28:50.966Z,13.70
2022-11-29T20:31:21.356Z,13.70
2022-11-29T20:33:49.152Z,13.70
2022-11-29T20:36:34.595Z,13.70
2022-11-29T20:39:07.343Z,13.60
2022-11-29T20:41:43.170Z,13.60
2022-11-29T20:44:13.713Z,13.60
2022-11-29T20:46:40.619Z,13.60
2022-11-29T20:49:08.312Z,13.70
2022-11-29T20:51:55.344Z,13.70
2022-11-29T20:54:22.225Z,13.60
2022-11-29T20:56:49.028Z,13.70
2022-11-29T20:59:15.822Z,13.60
2022-11-29T21:01:42.828Z,13.70
2022-11-29T21:04:09.595Z,13.80
2022-11-29T21:06:37.703Z,13.70
2022-11-29T21:09:05.059Z,13.70
2022-11-29T21:11:32.353Z,13.60
2022-11-29T21:14:03.393Z,13.60
2022-11-29T21:16:31.751Z,13.60
2022-11-29T21:19:01.582Z,13.60
2022-11-29T21:21:56.758Z,13.60
2022-11-29T21:24:50.530Z,13.50
2022-11-29T21:27:25.418Z,13.50
2022-11-29T21:29:52.626Z,13.50
2022-11-29T21:32:25.133Z,13.50
2022-11-29T21:34:52.533Z,13.60
2022-11-29T21:37:21.618Z,13.70
2022-11-29T21:39:51.171Z,13.60
2022-11-29T21:42:18.278Z,13.60
2022-11-29T21:44:46.103Z,13.60
2022-11-29T21:47:13.210Z,13.60
2022-11-29T21:49:40.022Z,13.60
2022-11-29T21:52:06.923Z,13.60
2022-11-29T21:54:33.777Z,13.70
2022-11-29T21:57:00.591Z,13.60
2022-11-29T21:59:28.112Z,13.60
2022-11-29T22:01:55.207Z,13.60
2022-11-29T22:04:22.247Z,13.60
2022-11-29T22:06:49.035Z,13.60
2022-11-29T22:09:15.738Z,13.40
2022-11-29T22:11:42.428Z,13.70
2022-11-29T22:14:15.511Z,13.60
2022-11-29T22:16:46.898Z,13.60
2022-11-29T22:19:19.152Z,13.60
2022-11-29T22:21:48.721Z,13.60
2022-11-29T22:24:18.177Z,13.60
2022-11-29T22:26:46.195Z,13.60
2022-11-29T22:29:14.193Z,13.60
2022-11-29T22:31:42.298Z,13.70
2022-11-29T22:34:09.487Z,13.70
2022-11-29T22:36:37.569Z,13.70
2022-11-29T22:39:05.659Z,13.80
2022-11-29T22:41:33.571Z,13.80
2022-11-29T22:44:00.391Z,13.70
2022-11-29T22:46:28.002Z,13.70
2022-11-29T22:48:56.710Z,13.70
2022-11-29T22:51:26.313Z,13.70
2022-11-29T22:53:58.038Z,13.80
2022-11-29T22:56:28.055Z,13.70
2022-11-29T22:58:55.082Z,13.70
2022-11-29T23:01:24.707Z,13.70
2022-11-29T23:03:54.522Z,13.60
2022-11-29T23:06:22.542Z,13.60
2022-11-29T23:08:50.290Z,13.70
2022-11-29T23:11:20.108Z,13.70
2022-11-29T23:13:47.017Z,13.70
2022-11-29T23:16:16.391Z,13.70
2022-11-29T23:18:44.794Z,13.70
2022-11-29T23:21:23.523Z,13.70
2022-11-29T23:23:56.060Z,13.70
2022-11-29T23:26:26.168Z,13.70
2022-11-29T23:28:53.794Z,13.80
2022-11-29T23:31:21.632Z,13.80
2022-11-29T23:33:49.042Z,13.90
2022-11-29T23:36:16.717Z,13.80
2022-11-29T23:38:43.635Z,13.80
2022-11-29T23:41:11.498Z,13.80
2022-11-29T23:43:40.576Z,13.70
2022-11-29T23:46:19.590Z,13.70
2022-11-29T23:48:47.027Z,13.80
2022-11-29T23:51:14.229Z,13.80
2022-11-29T23:53:41.503Z,13.80
2022-11-29T23:56:14.130Z,13.80
2022-11-29T23:58:41.086Z,13.80
